Airfield :
LOGIN :

Register | Disclaimer

   EN    FR    IT 

 










Legend :    VFR   Marginal VFR   IFR   Intensive IFR   Very Intensive IFR
Visi :
Ceiling :
>= 8 km
>= 3000ft
5 to 8 km
1000 to 3000 ft
1500m to 5 km
500 to 1000 ft
800 to 1500m
200 to 500 ft
< 800m
< 200 ft
Symbols :   Thunderstorms  Fog  Heavy snow  Heavy precipitations  Wind > 20 kt
SIGMETs :     Misc.  Thunderstorms  Icing  Turbulence  Mountain Waves  Volcanic Ashes







- Airport Elevation : 179 ft


LIPI - Rivolto AFB Udine

CURRENT METAR :
  • 190755Z /////KT CAVOK 26/15 Q1020 RMK SKC VIS MIN 9999 WIND THR06 01005KT WIND THR24 /////KT BLU

EXPIRED METARs :
  • 190655Z /////KT CAVOK 24/16 Q1020 RMK SKC VIS MIN 9999 WIND THR06 35004KT WIND THR24 /////KT BLU
  • 190555Z /////KT 9999 FEW080 22/16 Q1019 RMK FEW VIS MIN 9999 WIND THR06 34005KT WIND THR24 /////KT BLU

TAF TAF LIPI
Valid from the 19 at 06:00 until the 19 at 15:00 UTC


190500Z 1906/1915 04005KT 9999 FEW080
No reported NOTAMs for that airfield.



MET'MAP, your aeronautical weather chart ! - Copyright ORBIFLY December 2007 - Disclaimer

ORBIFLY MET'MAP TEAM :

Programming & Development : Alexandra Zaïnal
Concept & Development : Baudouin d'Aumeries
Co-Development & Prog : Marc-Olivier Méhu
Technical & hardware support : Manuel Goepfert

Contact : metmap@orbifly.com




SOURCES & CREDITS :

   NOAA